Terminal Aerodrome Forecast
Issued by NWS Sioux Falls, SD

Home | Current Version | Previous Version | Text Only | Print | Product List | Glossary On
Versions: 1 2 3 4 5 6 7 8 9 10 11 12 13 14 15
000
FTUS43 KFSD 270520
TAFSUX
TAF
KSUX 270520Z 2706/2806 11005KT P6SM OVC025
     FM270800 10004KT 6SM BR OVC012
      TEMPO 2708/2710 4SM BR OVC008
     FM271000 10003KT 3SM -SHRA BR OVC005
      TEMPO 2712/2713 2SM BR
     FM271500 16005KT P6SM BKN010
     FM271700 18009KT P6SM SCT025 SCT120
     FM280200 15006KT P6SM SCT035 SCT150=

USA.gov is the U.S. government's official web portal to all federal, state and local government web resources and services.